sensor_id;sensor_type;location;lat;lon;timestamp;pressure;altitude;pressure_sealevel;temperature;humidity
72086;BME280;64750;52.134;5.424;2022-11-13T00:00:08;102966.63;;;10.33;70.85
72086;BME280;64750;52.134;5.424;2022-11-13T00:02:34;102953.53;;;10.32;70.93
72086;BME280;64750;52.134;5.424;2022-11-13T00:05:01;102949.19;;;10.29;70.91
72086;BME280;64750;52.134;5.424;2022-11-13T00:07:27;102944.84;;;10.28;71.08
72086;BME280;64750;52.134;5.424;2022-11-13T00:09:53;102932.59;;;10.27;71.09
72086;BME280;64750;52.134;5.424;2022-11-13T00:12:20;102932.63;;;10.26;71.04
72086;BME280;64750;52.134;5.424;2022-11-13T00:14:46;102933.53;;;10.25;70.87
72086;BME280;64750;52.134;5.424;2022-11-13T00:17:13;102935.31;;;10.23;70.79
72086;BME280;64750;52.134;5.424;2022-11-13T00:19:39;102926.63;;;10.21;70.81
72086;BME280;64750;52.134;5.424;2022-11-13T00:22:06;102930.16;;;10.20;70.96
72086;BME280;64750;52.134;5.424;2022-11-13T00:24:32;102933.69;;;10.18;71.05
72086;BME280;64750;52.134;5.424;2022-11-13T00:26:58;102924.06;;;10.17;70.91
72086;BME280;64750;52.134;5.424;2022-11-13T00:29:25;102928.47;;;10.17;71.01
72086;BME280;64750;52.134;5.424;2022-11-13T00:31:51;102925.00;;;10.16;70.92
72086;BME280;64750;52.134;5.424;2022-11-13T00:34:17;102920.63;;;10.15;70.87
72086;BME280;64750;52.134;5.424;2022-11-13T00:37:04;102921.53;;;10.14;71.19
72086;BME280;64750;52.134;5.424;2022-11-13T00:39:30;102912.81;;;10.12;71.08
72086;BME280;64750;52.134;5.424;2022-11-13T00:41:56;102908.44;;;10.11;71.11
72086;BME280;64750;52.134;5.424;2022-11-13T00:44:23;102899.72;;;10.11;70.99
72086;BME280;64750;52.134;5.424;2022-11-13T00:46:49;102902.38;;;10.09;71.10
72086;BME280;64750;52.134;5.424;2022-11-13T00:49:15;102901.56;;;10.07;71.05
72086;BME280;64750;52.134;5.424;2022-11-13T00:51:42;102909.44;;;10.07;70.80
72086;BME280;64750;52.134;5.424;2022-11-13T00:54:09;102895.50;;;10.05;70.83
72086;BME280;64750;52.134;5.424;2022-11-13T00:56:35;102899.00;;;10.04;71.04
72086;BME280;64750;52.134;5.424;2022-11-13T00:59:02;102898.13;;;10.04;70.90
72086;BME280;64750;52.134;5.424;2022-11-13T01:01:28;102891.19;;;10.01;71.06
72086;BME280;64750;52.134;5.424;2022-11-13T01:03:54;102891.25;;;9.99;70.84
72086;BME280;64750;52.134;5.424;2022-11-13T01:06:24;102881.63;;;10.00;71.24
72086;BME280;64750;52.134;5.424;2022-11-13T01:08:54;102886.03;;;9.98;71.01
72086;BME280;64750;52.134;5.424;2022-11-13T01:11:24;102875.56;;;9.96;71.20
72086;BME280;64750;52.134;5.424;2022-11-13T01:13:51;102872.06;;;9.96;70.88
72086;BME280;64750;52.134;5.424;2022-11-13T01:16:21;102876.50;;;9.94;70.96
72086;BME280;64750;52.134;5.424;2022-11-13T01:18:48;102874.78;;;9.93;70.78
72086;BME280;64750;52.134;5.424;2022-11-13T01:21:17;102874.81;;;9.91;70.76
72086;BME280;64750;52.134;5.424;2022-11-13T01:23:44;102878.28;;;9.92;70.92
72086;BME280;64750;52.134;5.424;2022-11-13T01:28:42;102879.28;;;9.88;71.10
72086;BME280;64750;52.134;5.424;2022-11-13T01:31:11;102874.91;;;9.87;70.80
72086;BME280;64750;52.134;5.424;2022-11-13T01:33:38;102876.75;;;9.84;71.18
72086;BME280;64750;52.134;5.424;2022-11-13T01:36:07;102869.75;;;9.83;71.12
72086;BME280;64750;52.134;5.424;2022-11-13T01:38:34;102869.75;;;9.83;71.10
72086;BME280;64750;52.134;5.424;2022-11-13T01:41:02;102861.03;;;9.81;71.11
72086;BME280;64750;52.134;5.424;2022-11-13T01:43:36;102862.78;;;9.82;70.82
72086;BME280;64750;52.134;5.424;2022-11-13T01:48:41;102854.97;;;9.79;71.08
72086;BME280;64750;52.134;5.424;2022-11-13T01:51:11;102850.63;;;9.78;71.09
72086;BME280;64750;52.134;5.424;2022-11-13T01:53:41;102844.53;;;9.76;71.10
72086;BME280;64750;52.134;5.424;2022-11-13T01:56:10;102843.69;;;9.76;71.01
72086;BME280;64750;52.134;5.424;2022-11-13T01:58:39;102841.94;;;9.75;70.65
72086;BME280;64750;52.134;5.424;2022-11-13T02:01:05;102834.97;;;9.74;70.85
72086;BME280;64750;52.134;5.424;2022-11-13T02:03:32;102832.38;;;9.72;71.03
72086;BME280;64750;52.134;5.424;2022-11-13T02:05:59;102822.78;;;9.71;70.75
72086;BME280;64750;52.134;5.424;2022-11-13T02:08:25;102816.72;;;9.69;70.93
72086;BME280;64750;52.134;5.424;2022-11-13T02:10:52;102821.97;;;9.69;70.85
72086;BME280;64750;52.134;5.424;2022-11-13T02:13:20;102824.59;;;9.69;70.70
72086;BME280;64750;52.134;5.424;2022-11-13T02:15:47;102819.34;;;9.67;70.86
72086;BME280;64750;52.134;5.424;2022-11-13T02:18:14;102810.63;;;9.67;70.93
72086;BME280;64750;52.134;5.424;2022-11-13T02:26:05;102803.72;;;9.63;70.88
72086;BME280;64750;52.134;5.424;2022-11-13T02:28:32;102798.50;;;9.61;70.69
72086;BME280;64750;52.134;5.424;2022-11-13T02:31:09;102800.28;;;9.61;70.81
72086;BME280;64750;52.134;5.424;2022-11-13T02:33:36;102798.53;;;9.60;70.91
72086;BME280;64750;52.134;5.424;2022-11-13T02:36:04;102802.06;;;9.59;70.86
72086;BME280;64750;52.134;5.424;2022-11-13T02:38:31;102798.59;;;9.58;70.59
72086;BME280;64750;52.134;5.424;2022-11-13T02:40:58;102796.91;;;9.56;70.87
72086;BME280;64750;52.134;5.424;2022-11-13T02:43:24;102802.16;;;9.56;70.59
72086;BME280;64750;52.134;5.424;2022-11-13T02:45:51;102792.53;;;9.55;70.76
72086;BME280;64750;52.134;5.424;2022-11-13T02:48:17;102791.72;;;9.52;70.67
72086;BME280;64750;52.134;5.424;2022-11-13T02:50:44;102784.75;;;9.51;70.83
72086;BME280;64750;52.134;5.424;2022-11-13T02:53:10;102783.03;;;9.50;70.32
72086;BME280;64750;52.134;5.424;2022-11-13T02:55:37;102783.97;;;9.48;70.41
72086;BME280;64750;52.134;5.424;2022-11-13T02:58:03;102782.22;;;9.47;70.55
72086;BME280;64750;52.134;5.424;2022-11-13T03:00:29;102780.53;;;9.44;70.29
72086;BME280;64750;52.134;5.424;2022-11-13T03:02:56;102781.44;;;9.43;70.64
72086;BME280;64750;52.134;5.424;2022-11-13T03:05:22;102782.31;;;9.44;70.37
72086;BME280;64750;52.134;5.424;2022-11-13T03:07:49;102783.25;;;9.41;70.45
72086;BME280;64750;52.134;5.424;2022-11-13T03:10:15;102771.91;;;9.39;70.75
72086;BME280;64750;52.134;5.424;2022-11-13T03:12:41;102776.31;;;9.39;70.31
72086;BME280;64750;52.134;5.424;2022-11-13T03:15:08;102772.81;;;9.38;70.65
72086;BME280;64750;52.134;5.424;2022-11-13T03:17:35;102774.63;;;9.36;70.78
72086;BME280;64750;52.134;5.424;2022-11-13T03:20:03;102772.91;;;9.35;70.86
72086;BME280;64750;52.134;5.424;2022-11-13T03:22:30;102774.69;;;9.33;70.51
72086;BME280;64750;52.134;5.424;2022-11-13T03:24:56;102767.72;;;9.32;70.48
72086;BME280;64750;52.134;5.424;2022-11-13T03:27:23;102765.16;;;9.29;70.46
72086;BME280;64750;52.134;5.424;2022-11-13T03:29:49;102771.28;;;9.29;70.34
72086;BME280;64750;52.134;5.424;2022-11-13T03:32:15;102773.03;;;9.29;70.57
72086;BME280;64750;52.134;5.424;2022-11-13T03:34:42;102769.59;;;9.27;70.38
72086;BME280;64750;52.134;5.424;2022-11-13T03:37:08;102769.63;;;9.25;70.55
72086;BME280;64750;52.134;5.424;2022-11-13T03:39:34;102771.38;;;9.25;70.36
72086;BME280;64750;52.134;5.424;2022-11-13T03:42:01;102762.69;;;9.23;70.22
72086;BME280;64750;52.134;5.424;2022-11-13T03:44:27;102765.34;;;9.21;70.57
72086;BME280;64750;52.134;5.424;2022-11-13T03:46:53;102759.25;;;9.21;70.83
72086;BME280;64750;52.134;5.424;2022-11-13T03:49:20;102767.13;;;9.21;70.54
72086;BME280;64750;52.134;5.424;2022-11-13T03:51:46;102763.63;;;9.20;70.58
72086;BME280;64750;52.134;5.424;2022-11-13T03:54:13;102759.25;;;9.19;70.38
72086;BME280;64750;52.134;5.424;2022-11-13T03:56:39;102758.41;;;9.18;70.58
72086;BME280;64750;52.134;5.424;2022-11-13T03:59:05;102751.44;;;9.17;70.36
72086;BME280;64750;52.134;5.424;2022-11-13T04:01:32;102754.09;;;9.16;70.31
72086;BME280;64750;52.134;5.424;2022-11-13T04:03:58;102748.00;;;9.15;70.44
72086;BME280;64750;52.134;5.424;2022-11-13T04:06:24;102752.41;;;9.13;70.45
72086;BME280;64750;52.134;5.424;2022-11-13T04:08:52;102747.13;;;9.15;70.41
72086;BME280;64750;52.134;5.424;2022-11-13T04:11:19;102753.31;;;9.12;70.31
72086;BME280;64750;52.134;5.424;2022-11-13T04:13:45;102754.19;;;9.11;70.28
72086;BME280;64750;52.134;5.424;2022-11-13T04:16:11;102748.94;;;9.11;70.24
72086;BME280;64750;52.134;5.424;2022-11-13T04:18:38;102749.00;;;9.10;70.41
72086;BME280;64750;52.134;5.424;2022-11-13T04:21:04;102756.00;;;9.09;70.28
72086;BME280;64750;52.134;5.424;2022-11-13T04:23:31;102752.53;;;9.07;70.37
72086;BME280;64750;52.134;5.424;2022-11-13T04:25:57;102753.44;;;9.06;70.17
72086;BME280;64750;52.134;5.424;2022-11-13T04:28:24;102756.09;;;9.05;70.14
72086;BME280;64750;52.134;5.424;2022-11-13T04:30:53;102755.25;;;9.04;70.55
72086;BME280;64750;52.134;5.424;2022-11-13T04:33:20;102757.88;;;9.04;70.43
72086;BME280;64750;52.134;5.424;2022-11-13T04:35:46;102762.25;;;9.03;70.51
72086;BME280;64750;52.134;5.424;2022-11-13T04:38:14;102758.78;;;9.03;70.75
72086;BME280;64750;52.134;5.424;2022-11-13T04:40:41;102753.53;;;9.03;70.31
72086;BME280;64750;52.134;5.424;2022-11-13T04:43:07;102754.38;;;9.03;70.81
72086;BME280;64750;52.134;5.424;2022-11-13T04:45:34;102752.63;;;9.04;70.79
72086;BME280;64750;52.134;5.424;2022-11-13T04:48:01;102747.38;;;9.04;70.43
72086;BME280;64750;52.134;5.424;2022-11-13T04:50:27;102745.56;;;9.06;70.95
72086;BME280;64750;52.134;5.424;2022-11-13T04:52:54;102740.31;;;9.06;70.55
72086;BME280;64750;52.134;5.424;2022-11-13T04:55:20;102736.81;;;9.07;70.83
72086;BME280;64750;52.134;5.424;2022-11-13T04:57:46;102731.56;;;9.07;70.87
72086;BME280;64750;52.134;5.424;2022-11-13T05:00:16;102731.56;;;9.07;70.65
72086;BME280;64750;52.134;5.424;2022-11-13T05:02:43;102742.00;;;9.09;70.53
72086;BME280;64750;52.134;5.424;2022-11-13T05:05:09;102735.03;;;9.09;70.87
72086;BME280;64750;52.134;5.424;2022-11-13T05:07:35;102726.25;;;9.10;70.64
72086;BME280;64750;52.134;5.424;2022-11-13T05:10:02;102720.13;;;9.10;70.74
72086;BME280;64750;52.134;5.424;2022-11-13T05:12:28;102721.91;;;9.09;70.69
72086;BME280;64750;52.134;5.424;2022-11-13T05:14:55;102722.72;;;9.11;70.36
72086;BME280;64750;52.134;5.424;2022-11-13T05:17:21;102718.34;;;9.12;70.79
72086;BME280;64750;52.134;5.424;2022-11-13T05:19:48;102717.47;;;9.11;70.64
72086;BME280;64750;52.134;5.424;2022-11-13T05:22:14;102720.09;;;9.13;70.45
72086;BME280;64750;52.134;5.424;2022-11-13T05:24:41;102715.69;;;9.13;70.45
72086;BME280;64750;52.134;5.424;2022-11-13T05:27:07;102703.41;;;9.14;70.19
72086;BME280;64750;52.134;5.424;2022-11-13T05:29:41;102704.31;;;9.14;70.21
72086;BME280;64750;52.134;5.424;2022-11-13T05:32:07;102708.66;;;9.15;70.15
72086;BME280;64750;52.134;5.424;2022-11-13T05:34:33;102709.50;;;9.16;70.13
72086;BME280;64750;52.134;5.424;2022-11-13T05:37:00;102703.41;;;9.15;70.18
72086;BME280;64750;52.134;5.424;2022-11-13T05:39:26;102699.06;;;9.14;70.43
72086;BME280;64750;52.134;5.424;2022-11-13T05:41:52;102696.44;;;9.14;70.32
72086;BME280;64750;52.134;5.424;2022-11-13T05:44:19;102688.56;;;9.14;70.10
72086;BME280;64750;52.134;5.424;2022-11-13T05:46:45;102692.06;;;9.13;70.18
72086;BME280;64750;52.134;5.424;2022-11-13T05:49:11;102698.16;;;9.14;70.34
72086;BME280;64750;52.134;5.424;2022-11-13T05:51:38;102690.34;;;9.12;70.26
72086;BME280;64750;52.134;5.424;2022-11-13T05:54:04;102696.47;;;9.11;70.12
72086;BME280;64750;52.134;5.424;2022-11-13T05:56:34;102695.63;;;9.11;70.16
72086;BME280;64750;52.134;5.424;2022-11-13T05:59:02;102696.47;;;9.11;70.40
72086;BME280;64750;52.134;5.424;2022-11-13T06:01:31;102692.97;;;9.12;70.01
72086;BME280;64750;52.134;5.424;2022-11-13T06:03:59;102687.72;;;9.12;70.35
72086;BME280;64750;52.134;5.424;2022-11-13T06:06:27;102692.13;;;9.12;70.18
72086;BME280;64750;52.134;5.424;2022-11-13T06:08:55;102687.72;;;9.12;70.31
72086;BME280;64750;52.134;5.424;2022-11-13T06:11:24;102684.25;;;9.12;69.98
72086;BME280;64750;52.134;5.424;2022-11-13T06:13:51;102681.63;;;9.12;70.15
72086;BME280;64750;52.134;5.424;2022-11-13T06:16:20;102675.50;;;9.11;70.28
72086;BME280;64750;52.134;5.424;2022-11-13T06:18:48;102681.66;;;9.10;70.23
72086;BME280;64750;52.134;5.424;2022-11-13T06:21:22;102678.22;;;9.08;70.34
72086;BME280;64750;52.134;5.424;2022-11-13T06:23:49;102671.19;;;9.09;70.41
72086;BME280;64750;52.134;5.424;2022-11-13T06:26:21;102663.38;;;9.07;70.18
72086;BME280;64750;52.134;5.424;2022-11-13T06:28:48;102663.38;;;9.07;69.78
72086;BME280;64750;52.134;5.424;2022-11-13T06:31:17;102666.00;;;9.07;69.97
72086;BME280;64750;52.134;5.424;2022-11-13T06:33:45;102670.34;;;9.08;69.87
72086;BME280;64750;52.134;5.424;2022-11-13T06:36:17;102665.19;;;9.05;70.06
72086;BME280;64750;52.134;5.424;2022-11-13T06:38:44;102654.75;;;9.02;69.17
72086;BME280;64750;52.134;5.424;2022-11-13T06:41:12;102655.63;;;9.02;69.32
72086;BME280;64750;52.134;5.424;2022-11-13T06:43:39;102664.44;;;9.00;69.22
72086;BME280;64750;52.134;5.424;2022-11-13T06:46:17;102659.25;;;8.97;69.67
72086;BME280;64750;52.134;5.424;2022-11-13T06:48:44;102658.34;;;8.98;69.40
72086;BME280;64750;52.134;5.424;2022-11-13T06:51:17;102667.09;;;8.97;69.44
72086;BME280;64750;52.134;5.424;2022-11-13T06:53:44;102660.13;;;8.96;69.45
72086;BME280;64750;52.134;5.424;2022-11-13T06:56:11;102646.22;;;8.94;69.12
72086;BME280;64750;52.134;5.424;2022-11-13T06:58:37;102654.97;;;8.93;69.34
72086;BME280;64750;52.134;5.424;2022-11-13T07:01:09;102659.38;;;8.92;69.26
72086;BME280;64750;52.134;5.424;2022-11-13T07:03:35;102655.06;;;8.90;69.38
72086;BME280;64750;52.134;5.424;2022-11-13T07:06:08;102662.19;;;8.84;68.74
72086;BME280;64750;52.134;5.424;2022-11-13T07:08:35;102653.63;;;8.76;68.28
72086;BME280;64750;52.134;5.424;2022-11-13T07:11:02;102669.47;;;8.70;68.20
72086;BME280;64750;52.134;5.424;2022-11-13T07:13:28;102664.38;;;8.64;68.59
72086;BME280;64750;52.134;5.424;2022-11-13T07:16:00;102661.00;;;8.59;68.10
72086;BME280;64750;52.134;5.424;2022-11-13T07:18:41;102661.16;;;8.52;68.18
72086;BME280;64750;52.134;5.424;2022-11-13T07:21:09;102663.03;;;8.47;68.52
72086;BME280;64750;52.134;5.424;2022-11-13T07:23:36;102661.31;;;8.43;68.23
72086;BME280;64750;52.134;5.424;2022-11-13T07:26:11;102658.84;;;8.35;67.75
72086;BME280;64750;52.134;5.424;2022-11-13T07:28:38;102658.09;;;8.30;68.43
72086;BME280;64750;52.134;5.424;2022-11-13T07:31:05;102655.59;;;8.26;68.30
72086;BME280;64750;52.134;5.424;2022-11-13T07:33:31;102651.28;;;8.21;68.12
72086;BME280;64750;52.134;5.424;2022-11-13T07:35:58;102649.59;;;8.19;68.43
72086;BME280;64750;52.134;5.424;2022-11-13T07:38:25;102658.41;;;8.15;68.84
72086;BME280;64750;52.134;5.424;2022-11-13T07:40:52;102653.28;;;8.10;68.55
72086;BME280;64750;52.134;5.424;2022-11-13T07:43:18;102651.59;;;8.06;68.52
72086;BME280;64750;52.134;5.424;2022-11-13T07:45:45;102652.56;;;8.02;68.89
72086;BME280;64750;52.134;5.424;2022-11-13T07:48:11;102640.41;;;7.99;68.88
72086;BME280;64750;52.134;5.424;2022-11-13T07:50:38;102641.31;;;7.97;69.15
72086;BME280;64750;52.134;5.424;2022-11-13T07:53:06;102640.50;;;7.95;69.40
72086;BME280;64750;52.134;5.424;2022-11-13T07:55:35;102643.16;;;7.92;69.67
72086;BME280;64750;52.134;5.424;2022-11-13T07:58:03;102647.56;;;7.89;69.22
72086;BME280;64750;52.134;5.424;2022-11-13T08:00:32;102647.63;;;7.86;69.69
72086;BME280;64750;52.134;5.424;2022-11-13T08:03:06;102646.78;;;7.84;69.85
72086;BME280;64750;52.134;5.424;2022-11-13T08:05:34;102652.09;;;7.81;70.00
72086;BME280;64750;52.134;5.424;2022-11-13T08:08:00;102644.28;;;7.80;70.66
72086;BME280;64750;52.134;5.424;2022-11-13T08:10:27;102652.97;;;7.80;70.74
72086;BME280;64750;52.134;5.424;2022-11-13T08:13:02;102647.78;;;7.79;71.25
72086;BME280;64750;52.134;5.424;2022-11-13T08:15:29;102648.66;;;7.78;71.09
72086;BME280;64750;52.134;5.424;2022-11-13T08:17:57;102633.00;;;7.76;71.46
72086;BME280;64750;52.134;5.424;2022-11-13T08:20:25;102640.00;;;7.76;71.46
72086;BME280;64750;52.134;5.424;2022-11-13T08:22:56;102632.16;;;7.76;71.95
72086;BME280;64750;52.134;5.424;2022-11-13T08:25:22;102636.50;;;7.75;72.07
72086;BME280;64750;52.134;5.424;2022-11-13T08:27:51;102629.53;;;7.74;72.10
72086;BME280;64750;52.134;5.424;2022-11-13T08:30:19;102634.81;;;7.72;72.29
72086;BME280;64750;52.134;5.424;2022-11-13T08:32:46;102637.44;;;7.72;72.56
72086;BME280;64750;52.134;5.424;2022-11-13T08:35:13;102634.81;;;7.72;72.47
72086;BME280;64750;52.134;5.424;2022-11-13T08:37:44;102629.53;;;7.74;72.75
72086;BME280;64750;52.134;5.424;2022-11-13T08:40:11;102626.97;;;7.72;73.19
72086;BME280;64750;52.134;5.424;2022-11-13T08:42:37;102622.59;;;7.73;73.39
72086;BME280;64750;52.134;5.424;2022-11-13T08:45:04;102611.22;;;7.74;73.20
72086;BME280;64750;52.134;5.424;2022-11-13T08:47:30;102611.22;;;7.74;73.39
72086;BME280;64750;52.134;5.424;2022-11-13T08:49:57;102612.94;;;7.75;73.32
72086;BME280;64750;52.134;5.424;2022-11-13T08:52:23;102603.41;;;7.72;73.10
72086;BME280;64750;52.134;5.424;2022-11-13T08:54:50;102608.66;;;7.71;73.35
72086;BME280;64750;52.134;5.424;2022-11-13T08:57:16;102607.00;;;7.67;73.32
72086;BME280;64750;52.134;5.424;2022-11-13T08:59:42;102607.06;;;7.64;72.99
72086;BME280;64750;52.134;5.424;2022-11-13T09:02:13;102623.72;;;7.60;73.34
72086;BME280;64750;52.134;5.424;2022-11-13T09:04:40;102618.47;;;7.60;72.90
72086;BME280;64750;52.134;5.424;2022-11-13T09:07:06;102625.47;;;7.59;73.03
72086;BME280;64750;52.134;5.424;2022-11-13T09:09:33;102621.09;;;7.60;73.35
72086;BME280;64750;52.134;5.424;2022-11-13T09:11:59;102621.09;;;7.60;73.41
72086;BME280;64750;52.134;5.424;2022-11-13T09:14:25;102619.38;;;7.60;73.81
72086;BME280;64750;52.134;5.424;2022-11-13T09:16:53;102619.31;;;7.62;74.13
72086;BME280;64750;52.134;5.424;2022-11-13T09:19:19;102617.50;;;7.67;73.97
72086;BME280;64750;52.134;5.424;2022-11-13T09:21:46;102611.41;;;7.65;73.68
72086;BME280;64750;52.134;5.424;2022-11-13T09:24:12;102614.91;;;7.65;74.12
72086;BME280;64750;52.134;5.424;2022-11-13T09:26:38;102610.44;;;7.69;74.42
72086;BME280;64750;52.134;5.424;2022-11-13T09:29:05;102592.97;;;7.71;74.13
72086;BME280;64750;52.134;5.424;2022-11-13T09:31:31;102605.97;;;7.74;74.53
72086;BME280;64750;52.134;5.424;2022-11-13T09:33:57;102598.97;;;7.76;74.50
72086;BME280;64750;52.134;5.424;2022-11-13T09:36:24;102596.34;;;7.76;74.32
72086;BME280;64750;52.134;5.424;2022-11-13T09:38:50;102605.94;;;7.77;74.21
72086;BME280;64750;52.134;5.424;2022-11-13T09:41:19;102603.31;;;7.77;74.39
72086;BME280;64750;52.134;5.424;2022-11-13T09:43:52;102595.44;;;7.79;74.59
72086;BME280;64750;52.134;5.424;2022-11-13T09:49:26;102597.00;;;7.87;74.88
72086;BME280;64750;52.134;5.424;2022-11-13T09:52:02;102596.94;;;7.92;74.67
72086;BME280;64750;52.134;5.424;2022-11-13T09:54:32;102595.13;;;7.94;74.60
72086;BME280;64750;52.134;5.424;2022-11-13T09:57:15;102596.72;;;8.01;75.32
72086;BME280;64750;52.134;5.424;2022-11-13T10:00:03;102593.09;;;8.07;74.99
72086;BME280;64750;52.134;5.424;2022-11-13T10:02:56;102586.88;;;8.11;75.31
72086;BME280;64750;52.134;5.424;2022-11-13T10:08:15;102578.69;;;8.28;75.41
72086;BME280;64750;52.134;5.424;2022-11-13T10:10:51;102577.75;;;8.31;75.22
72086;BME280;64750;52.134;5.424;2022-11-13T10:13:29;102574.13;;;8.36;75.90
72086;BME280;64750;52.134;5.424;2022-11-13T10:16:04;102573.13;;;8.42;75.54
72086;BME280;64750;52.134;5.424;2022-11-13T10:18:34;102573.84;;;8.50;75.11
72086;BME280;64750;52.134;5.424;2022-11-13T10:21:38;102572.06;;;8.52;75.04
72086;BME280;64750;52.134;5.424;2022-11-13T10:24:24;102564.06;;;8.57;75.79
72086;BME280;64750;52.134;5.424;2022-11-13T10:26:55;102561.41;;;8.59;75.43
72086;BME280;64750;52.134;5.424;2022-11-13T10:29:23;102557.81;;;8.63;75.36
72086;BME280;64750;52.134;5.424;2022-11-13T10:31:51;102559.47;;;8.67;75.80
72086;BME280;64750;52.134;5.424;2022-11-13T10:34:18;102556.66;;;8.75;75.49
72086;BME280;64750;52.134;5.424;2022-11-13T10:37:14;102559.09;;;8.82;75.75
72086;BME280;64750;52.134;5.424;2022-11-13T10:39:45;102551.84;;;8.92;75.76
72086;BME280;64750;52.134;5.424;2022-11-13T10:42:29;102548.09;;;9.01;75.80
72086;BME280;64750;52.134;5.424;2022-11-13T10:45:00;102546.16;;;9.09;75.51
72086;BME280;64750;52.134;5.424;2022-11-13T10:47:30;102551.19;;;9.17;75.59
72086;BME280;64750;52.134;5.424;2022-11-13T10:50:25;102538.72;;;9.27;75.68
72086;BME280;64750;52.134;5.424;2022-11-13T10:52:53;102540.91;;;9.42;75.43
72086;BME280;64750;52.134;5.424;2022-11-13T10:55:50;102534.50;;;9.52;75.58
72086;BME280;64750;52.134;5.424;2022-11-13T10:58:18;102532.50;;;9.61;75.44
72086;BME280;64750;52.134;5.424;2022-11-13T11:00:45;102527.66;;;9.77;75.84
72086;BME280;64750;52.134;5.424;2022-11-13T11:05:51;102511.88;;;10.07;75.51
72086;BME280;64750;52.134;5.424;2022-11-13T11:08:21;102511.63;;;10.14;75.34
72086;BME280;64750;52.134;5.424;2022-11-13T11:11:06;102508.47;;;10.31;75.08
72086;BME280;64750;52.134;5.424;2022-11-13T11:13:51;102500.03;;;10.48;74.62
72086;BME280;64750;52.134;5.424;2022-11-13T11:16:22;102497.72;;;10.66;74.33
72086;BME280;64750;52.134;5.424;2022-11-13T11:18:51;102491.22;;;10.76;74.25
72086;BME280;64750;52.134;5.424;2022-11-13T11:21:25;102494.47;;;10.85;74.16
72086;BME280;64750;52.134;5.424;2022-11-13T11:24:02;102480.09;;;10.95;74.09
72086;BME280;64750;52.134;5.424;2022-11-13T11:26:36;102476.00;;;11.11;73.83
72086;BME280;64750;52.134;5.424;2022-11-13T11:29:40;102465.91;;;11.23;73.63
72086;BME280;64750;52.134;5.424;2022-11-13T11:32:19;102457.44;;;11.38;73.21
72086;BME280;64750;52.134;5.424;2022-11-13T11:34:54;102451.41;;;11.58;72.61
72086;BME280;64750;52.134;5.424;2022-11-13T11:37:31;102451.94;;;11.68;72.82
72086;BME280;64750;52.134;5.424;2022-11-13T11:40:13;102452.91;;;11.88;71.70
72086;BME280;64750;52.134;5.424;2022-11-13T11:43:11;102439.97;;;12.05;70.49
72086;BME280;64750;52.134;5.424;2022-11-13T11:45:43;102435.88;;;12.19;70.25
72086;BME280;64750;52.134;5.424;2022-11-13T11:48:19;102435.25;;;12.34;68.68
72086;BME280;64750;52.134;5.424;2022-11-13T11:54:05;102424.44;;;12.61;68.00
72086;BME280;64750;52.134;5.424;2022-11-13T11:56:39;102425.91;;;12.68;67.33
72086;BME280;64750;52.134;5.424;2022-11-13T11:59:19;102424.56;;;12.78;67.41
72086;BME280;64750;52.134;5.424;2022-11-13T12:10:21;102406.19;;;13.15;65.82
72086;BME280;64750;52.134;5.424;2022-11-13T12:13:12;102409.28;;;13.25;65.17
72086;BME280;64750;52.134;5.424;2022-11-13T12:15:48;102409.81;;;13.33;64.48
72086;BME280;64750;52.134;5.424;2022-11-13T12:21:30;102400.38;;;13.47;63.88
72086;BME280;64750;52.134;5.424;2022-11-13T12:29:51;102396.56;;;13.71;61.62
72086;BME280;64750;52.134;5.424;2022-11-13T12:35:21;102383.59;;;13.84;61.78
72086;BME280;64750;52.134;5.424;2022-11-13T12:38:00;102373.72;;;13.88;62.11
72086;BME280;64750;52.134;5.424;2022-11-13T12:40:35;102374.44;;;13.91;62.76
72086;BME280;64750;52.134;5.424;2022-11-13T12:46:11;102357.56;;;13.94;64.00
72086;BME280;64750;52.134;5.424;2022-11-13T12:48:45;102359.22;;;13.97;63.66
72086;BME280;64750;52.134;5.424;2022-11-13T12:51:15;102353.75;;;14.00;64.14
72086;BME280;64750;52.134;5.424;2022-11-13T12:53:49;102346.63;;;14.02;64.57
72086;BME280;64750;52.134;5.424;2022-11-13T12:58:56;102349.03;;;14.06;64.04
72086;BME280;64750;52.134;5.424;2022-11-13T13:07:46;102335.34;;;14.16;62.82
72086;BME280;64750;52.134;5.424;2022-11-13T13:13:16;102322.22;;;14.14;62.32
72086;BME280;64750;52.134;5.424;2022-11-13T13:15:55;102321.19;;;14.17;62.54
72086;BME280;64750;52.134;5.424;2022-11-13T13:18:36;102313.34;;;14.15;62.96
72086;BME280;64750;52.134;5.424;2022-11-13T13:21:11;102300.97;;;14.16;62.88
72086;BME280;64750;52.134;5.424;2022-11-13T13:23:48;102301.91;;;14.15;62.94
72086;BME280;64750;52.134;5.424;2022-11-13T13:26:27;102302.69;;;14.17;62.89
72086;BME280;64750;52.134;5.424;2022-11-13T13:29:00;102300.88;;;14.17;61.41
72086;BME280;64750;52.134;5.424;2022-11-13T13:31:38;102291.22;;;14.16;61.30
72086;BME280;64750;52.134;5.424;2022-11-13T13:36:46;102294.75;;;14.17;62.23
72086;BME280;64750;52.134;5.424;2022-11-13T13:39:23;102292.09;;;14.17;62.62
72086;BME280;64750;52.134;5.424;2022-11-13T13:45:29;102285.09;;;14.16;62.06
72086;BME280;64750;52.134;5.424;2022-11-13T13:47:39;102282.47;;;14.16;61.26
72086;BME280;64750;52.134;5.424;2022-11-13T13:50:14;102285.00;;;14.17;61.67
72086;BME280;64750;52.134;5.424;2022-11-13T13:52:42;102277.09;;;14.17;60.78
72086;BME280;64750;52.134;5.424;2022-11-13T13:55:15;102271.72;;;14.19;61.56
72086;BME280;64750;52.134;5.424;2022-11-13T13:57:43;102268.22;;;14.18;61.75
72086;BME280;64750;52.134;5.424;2022-11-13T14:00:11;102268.13;;;14.20;62.32
72086;BME280;64750;52.134;5.424;2022-11-13T14:02:50;102262.84;;;14.20;62.56
72086;BME280;64750;52.134;5.424;2022-11-13T14:05:36;102252.25;;;14.20;62.51
72086;BME280;64750;52.134;5.424;2022-11-13T14:08:15;102260.19;;;14.20;62.79
72086;BME280;64750;52.134;5.424;2022-11-13T14:10:43;102246.13;;;14.19;63.12
72086;BME280;64750;52.134;5.424;2022-11-13T14:13:12;102247.91;;;14.19;63.32